sensor_id;sensor_type;location;lat;lon;timestamp;pressure;altitude;pressure_sealevel;temperature;humidity
62976;BME280;49071;0.000;0.000;2023-10-13T00:00:34;100913.47;;;20.53;
62976;BME280;49071;0.000;0.000;2023-10-13T00:03:37;100906.50;;;20.52;
62976;BME280;49071;0.000;0.000;2023-10-13T00:06:40;100908.31;;;20.52;
62976;BME280;49071;0.000;0.000;2023-10-13T00:09:42;100904.00;;;20.51;
62976;BME280;49071;0.000;0.000;2023-10-13T00:12:42;100901.50;;;20.49;
62976;BME280;49071;0.000;0.000;2023-10-13T00:15:49;100901.50;;;20.49;
62976;BME280;49071;0.000;0.000;2023-10-13T00:18:52;100907.72;;;20.48;
62976;BME280;49071;0.000;0.000;2023-10-13T00:21:57;100908.69;;;20.48;
62976;BME280;49071;0.000;0.000;2023-10-13T00:25:08;100906.06;;;20.48;
62976;BME280;49071;0.000;0.000;2023-10-13T00:28:19;100901.75;;;20.47;
62976;BME280;49071;0.000;0.000;2023-10-13T00:31:26;100896.50;;;20.47;
62976;BME280;49071;0.000;0.000;2023-10-13T00:34:32;100904.53;;;20.45;
62976;BME280;49071;0.000;0.000;2023-10-13T00:37:35;100903.69;;;20.45;
62976;BME280;49071;0.000;0.000;2023-10-13T00:40:43;100899.38;;;20.44;
62976;BME280;49071;0.000;0.000;2023-10-13T00:43:52;100896.75;;;20.44;
62976;BME280;49071;0.000;0.000;2023-10-13T00:47:04;100900.34;;;20.43;
62976;BME280;49071;0.000;0.000;2023-10-13T00:50:07;100895.09;;;20.43;
62976;BME280;49071;0.000;0.000;2023-10-13T00:53:11;100901.31;;;20.42;
62976;BME280;49071;0.000;0.000;2023-10-13T00:56:12;100897.03;;;20.41;
62976;BME280;49071;0.000;0.000;2023-10-13T00:59:24;100906.69;;;20.40;
62976;BME280;49071;0.000;0.000;2023-10-13T01:02:25;100913.75;;;20.40;
62976;BME280;49071;0.000;0.000;2023-10-13T01:05:37;100894.53;;;20.39;
62976;BME280;49071;0.000;0.000;2023-10-13T01:08:39;100897.16;;;20.39;
62976;BME280;49071;0.000;0.000;2023-10-13T01:11:40;100892.88;;;20.38;
62976;BME280;49071;0.000;0.000;2023-10-13T01:14:42;100894.66;;;20.38;
62976;BME280;49071;0.000;0.000;2023-10-13T01:17:44;100891.19;;;20.37;
62976;BME280;49071;0.000;0.000;2023-10-13T01:20:45;100890.34;;;20.37;
62976;BME280;49071;0.000;0.000;2023-10-13T01:23:52;100887.72;;;20.37;
62976;BME280;49071;0.000;0.000;2023-10-13T01:26:52;100888.69;;;20.36;
62976;BME280;49071;0.000;0.000;2023-10-13T01:29:53;100887.03;;;20.35;
62976;BME280;49071;0.000;0.000;2023-10-13T01:32:58;100891.44;;;20.34;
62976;BME280;49071;0.000;0.000;2023-10-13T01:36:00;100885.34;;;20.34;
62976;BME280;49071;0.000;0.000;2023-10-13T01:39:09;100880.09;;;20.34;
62976;BME280;49071;0.000;0.000;2023-10-13T01:42:11;100883.69;;;20.33;
62976;BME280;49071;0.000;0.000;2023-10-13T01:45:14;100888.13;;;20.32;
62976;BME280;49071;0.000;0.000;2023-10-13T01:48:14;100876.78;;;20.32;
62976;BME280;49071;0.000;0.000;2023-10-13T01:51:16;100879.41;;;20.32;
62976;BME280;49071;0.000;0.000;2023-10-13T01:54:17;100882.16;;;20.30;
62976;BME280;49071;0.000;0.000;2023-10-13T01:57:17;100875.09;;;20.31;
62976;BME280;49071;0.000;0.000;2023-10-13T02:00:17;100877.88;;;20.29;
62976;BME280;49071;0.000;0.000;2023-10-13T02:03:21;100885.75;;;20.29;
62976;BME280;49071;0.000;0.000;2023-10-13T02:06:21;100880.59;;;20.28;
62976;BME280;49071;0.000;0.000;2023-10-13T02:09:23;100880.59;;;20.28;
62976;BME280;49071;0.000;0.000;2023-10-13T02:12:27;100883.38;;;20.26;
62976;BME280;49071;0.000;0.000;2023-10-13T02:15:36;100886.00;;;20.26;
62976;BME280;49071;0.000;0.000;2023-10-13T02:18:37;100879.91;;;20.26;
62976;BME280;49071;0.000;0.000;2023-10-13T02:21:43;100877.28;;;20.26;
62976;BME280;49071;0.000;0.000;2023-10-13T02:24:44;100872.16;;;20.24;
62976;BME280;49071;0.000;0.000;2023-10-13T02:27:49;100865.09;;;20.25;
62976;BME280;49071;0.000;0.000;2023-10-13T02:31:01;100858.19;;;20.24;
62976;BME280;49071;0.000;0.000;2023-10-13T02:34:03;100867.88;;;20.23;
62976;BME280;49071;0.000;0.000;2023-10-13T02:37:12;100873.13;;;20.23;
62976;BME280;49071;0.000;0.000;2023-10-13T02:40:13;100866.22;;;20.22;
62976;BME280;49071;0.000;0.000;2023-10-13T02:43:13;100863.69;;;20.21;
62976;BME280;49071;0.000;0.000;2023-10-13T02:46:14;100861.06;;;20.21;
62976;BME280;49071;0.000;0.000;2023-10-13T02:49:16;100854.97;;;20.20;
62976;BME280;49071;0.000;0.000;2023-10-13T02:52:19;100859.41;;;20.20;
62976;BME280;49071;0.000;0.000;2023-10-13T02:55:20;100851.53;;;20.20;
62976;BME280;49071;0.000;0.000;2023-10-13T02:58:25;100855.09;;;20.19;
62976;BME280;49071;0.000;0.000;2023-10-13T03:01:37;100849.00;;;20.19;
62976;BME280;49071;0.000;0.000;2023-10-13T03:04:38;100852.47;;;20.19;
62976;BME280;49071;0.000;0.000;2023-10-13T03:07:41;100838.66;;;20.17;
62976;BME280;49071;0.000;0.000;2023-10-13T03:10:43;100836.03;;;20.17;
62976;BME280;49071;0.000;0.000;2023-10-13T03:13:46;100828.25;;;20.16;
62976;BME280;49071;0.000;0.000;2023-10-13T03:16:46;100819.44;;;20.17;
62976;BME280;49071;0.000;0.000;2023-10-13T03:19:46;100818.72;;;20.15;
62976;BME280;49071;0.000;0.000;2023-10-13T03:22:52;100817.75;;;20.16;
62976;BME280;49071;0.000;0.000;2023-10-13T03:25:52;100820.50;;;20.14;
62976;BME280;49071;0.000;0.000;2023-10-13T03:28:55;100817.06;;;20.14;
62976;BME280;49071;0.000;0.000;2023-10-13T03:31:57;100819.81;;;20.12;
62976;BME280;49071;0.000;0.000;2023-10-13T03:35:06;100809.28;;;20.12;
62976;BME280;49071;0.000;0.000;2023-10-13T03:38:13;100805.00;;;20.11;
62976;BME280;49071;0.000;0.000;2023-10-13T03:41:19;100801.41;;;20.12;
62976;BME280;49071;0.000;0.000;2023-10-13T03:44:24;100794.50;;;20.11;
62976;BME280;49071;0.000;0.000;2023-10-13T03:47:30;100784.00;;;20.11;
62976;BME280;49071;0.000;0.000;2023-10-13T03:50:32;100770.97;;;20.10;
62976;BME280;49071;0.000;0.000;2023-10-13T03:53:33;100766.69;;;20.09;
62976;BME280;49071;0.000;0.000;2023-10-13T03:56:33;100768.50;;;20.08;
62976;BME280;49071;0.000;0.000;2023-10-13T03:59:39;100749.28;;;20.08;
62976;BME280;49071;0.000;0.000;2023-10-13T04:02:40;100747.47;;;20.08;
62976;BME280;49071;0.000;0.000;2023-10-13T04:05:45;100747.47;;;20.08;
62976;BME280;49071;0.000;0.000;2023-10-13T04:09:00;100744.97;;;20.07;
62976;BME280;49071;0.000;0.000;2023-10-13T04:12:19;100737.22;;;20.05;
62976;BME280;49071;0.000;0.000;2023-10-13T04:15:43;100734.59;;;20.05;
62976;BME280;49071;0.000;0.000;2023-10-13T04:19:02;100732.09;;;20.04;
62976;BME280;49071;0.000;0.000;2023-10-13T04:22:02;100730.31;;;20.04;
62976;BME280;49071;0.000;0.000;2023-10-13T04:25:24;100739.84;;;20.05;
62976;BME280;49071;0.000;0.000;2023-10-13T04:28:42;100733.78;;;20.05;
62976;BME280;49071;0.000;0.000;2023-10-13T04:31:55;100743.56;;;20.03;
62976;BME280;49071;0.000;0.000;2023-10-13T04:35:00;100733.06;;;20.03;
62976;BME280;49071;0.000;0.000;2023-10-13T04:38:12;100732.25;;;20.02;
62976;BME280;49071;0.000;0.000;2023-10-13T04:41:20;100738.47;;;20.01;
62976;BME280;49071;0.000;0.000;2023-10-13T04:44:23;100745.38;;;20.02;
62976;BME280;49071;0.000;0.000;2023-10-13T04:47:29;100729.72;;;20.01;
62976;BME280;49071;0.000;0.000;2023-10-13T04:50:41;100732.25;;;20.02;
62976;BME280;49071;0.000;0.000;2023-10-13T04:53:45;100735.84;;;20.01;
62976;BME280;49071;0.000;0.000;2023-10-13T04:57:03;100735.94;;;20.00;
62976;BME280;49071;0.000;0.000;2023-10-13T05:00:22;100728.91;;;20.00;
62976;BME280;49071;0.000;0.000;2023-10-13T05:03:22;100723.66;;;20.00;
62976;BME280;49071;0.000;0.000;2023-10-13T05:06:52;100722.97;;;19.98;
62976;BME280;49071;0.000;0.000;2023-10-13T05:10:11;100725.59;;;19.98;
62976;BME280;49071;0.000;0.000;2023-10-13T05:13:30;100720.34;;;19.98;
62976;BME280;49071;0.000;0.000;2023-10-13T05:16:49;100719.50;;;19.98;
62976;BME280;49071;0.000;0.000;2023-10-13T05:20:08;100722.13;;;19.98;
62976;BME280;49071;0.000;0.000;2023-10-13T05:23:27;100719.50;;;19.98;
62976;BME280;49071;0.000;0.000;2023-10-13T05:26:46;100707.38;;;20.06;
62976;BME280;49071;0.000;0.000;2023-10-13T05:30:05;100714.22;;;20.18;
62976;BME280;49071;0.000;0.000;2023-10-13T05:33:24;100722.69;;;20.31;
62976;BME280;49071;0.000;0.000;2023-10-13T05:36:42;100715.84;;;20.48;
62976;BME280;49071;0.000;0.000;2023-10-13T05:40:01;100716.94;;;20.66;
62976;BME280;49071;0.000;0.000;2023-10-13T05:43:20;100709.78;;;20.87;
62976;BME280;49071;0.000;0.000;2023-10-13T05:46:39;100699.41;;;21.04;
62976;BME280;49071;0.000;0.000;2023-10-13T05:49:39;100712.03;;;21.19;
62976;BME280;49071;0.000;0.000;2023-10-13T05:53:12;100701.09;;;21.24;
62976;BME280;49071;0.000;0.000;2023-10-13T05:56:12;100707.19;;;21.24;
62976;BME280;49071;0.000;0.000;2023-10-13T05:59:32;100705.81;;;21.30;
62976;BME280;49071;0.000;0.000;2023-10-13T06:02:51;100703.31;;;21.28;
62976;BME280;49071;0.000;0.000;2023-10-13T06:06:10;100713.16;;;21.26;
62976;BME280;49071;0.000;0.000;2023-10-13T06:09:28;100706.38;;;21.24;
62976;BME280;49071;0.000;0.000;2023-10-13T06:12:48;100714.66;;;21.19;
62976;BME280;49071;0.000;0.000;2023-10-13T06:16:08;100711.34;;;21.17;
62976;BME280;49071;0.000;0.000;2023-10-13T06:19:27;100707.31;;;21.13;
62976;BME280;49071;0.000;0.000;2023-10-13T06:22:49;100714.66;;;21.10;
62976;BME280;49071;0.000;0.000;2023-10-13T06:26:08;100707.19;;;21.06;
62976;BME280;49071;0.000;0.000;2023-10-13T06:29:26;100701.50;;;21.01;
62976;BME280;49071;0.000;0.000;2023-10-13T06:32:27;100699.97;;;20.98;
62976;BME280;49071;0.000;0.000;2023-10-13T06:35:27;100696.66;;;20.96;
62976;BME280;49071;0.000;0.000;2023-10-13T06:38:27;100694.16;;;20.95;
62976;BME280;49071;0.000;0.000;2023-10-13T06:41:30;100699.00;;;20.90;
62976;BME280;49071;0.000;0.000;2023-10-13T06:44:31;100697.47;;;20.87;
62976;BME280;49071;0.000;0.000;2023-10-13T06:47:32;100703.81;;;20.85;
62976;BME280;49071;0.000;0.000;2023-10-13T06:50:32;100701.34;;;20.83;
62976;BME280;49071;0.000;0.000;2023-10-13T06:53:39;100706.59;;;20.83;
62976;BME280;49071;0.000;0.000;2023-10-13T06:56:47;100700.47;;;20.83;
62976;BME280;49071;0.000;0.000;2023-10-13T06:59:52;100692.47;;;20.84;
62976;BME280;49071;0.000;0.000;2023-10-13T07:02:53;100694.94;;;20.86;
62976;BME280;49071;0.000;0.000;2023-10-13T07:05:54;100697.31;;;20.89;
62976;BME280;49071;0.000;0.000;2023-10-13T07:08:54;100689.16;;;20.92;
62976;BME280;49071;0.000;0.000;2023-10-13T07:11:58;100692.50;;;20.94;
62976;BME280;49071;0.000;0.000;2023-10-13T07:15:00;100700.81;;;20.99;
62976;BME280;49071;0.000;0.000;2023-10-13T07:18:18;100685.59;;;21.02;
62976;BME280;49071;0.000;0.000;2023-10-13T07:21:22;100686.97;;;21.06;
62976;BME280;49071;0.000;0.000;2023-10-13T07:24:31;100678.66;;;21.10;
62976;BME280;49071;0.000;0.000;2023-10-13T07:27:31;100685.31;;;21.14;
62976;BME280;49071;0.000;0.000;2023-10-13T07:30:36;100672.56;;;21.19;
62976;BME280;49071;0.000;0.000;2023-10-13T07:33:49;100668.81;;;21.22;
62976;BME280;49071;0.000;0.000;2023-10-13T07:36:51;100668.72;;;21.23;
62976;BME280;49071;0.000;0.000;2023-10-13T07:39:51;100659.84;;;21.24;
62976;BME280;49071;0.000;0.000;2023-10-13T07:42:55;100660.25;;;21.29;
62976;BME280;49071;0.000;0.000;2023-10-13T07:46:03;100649.72;;;21.29;
62976;BME280;49071;0.000;0.000;2023-10-13T07:49:09;100655.00;;;21.29;
62976;BME280;49071;0.000;0.000;2023-10-13T07:52:11;100654.56;;;21.24;
62976;BME280;49071;0.000;0.000;2023-10-13T07:55:20;100653.75;;;21.24;
62976;BME280;49071;0.000;0.000;2023-10-13T07:58:22;100641.00;;;21.19;
62976;BME280;49071;0.000;0.000;2023-10-13T08:01:24;100631.88;;;21.14;
62976;BME280;49071;0.000;0.000;2023-10-13T08:04:25;100624.81;;;21.14;
62976;BME280;49071;0.000;0.000;2023-10-13T08:07:28;100634.63;;;21.12;
62976;BME280;49071;0.000;0.000;2023-10-13T08:10:28;100631.28;;;21.10;
62976;BME280;49071;0.000;0.000;2023-10-13T08:13:35;100627.72;;;21.11;
62976;BME280;49071;0.000;0.000;2023-10-13T08:16:40;100624.25;;;21.11;
62976;BME280;49071;0.000;0.000;2023-10-13T08:19:47;100619.69;;;21.04;
62976;BME280;49071;0.000;0.000;2023-10-13T08:22:47;100617.47;;;20.99;
62976;BME280;49071;0.000;0.000;2023-10-13T08:25:48;100615.25;;;20.95;
62976;BME280;49071;0.000;0.000;2023-10-13T08:29:07;100617.03;;;20.94;
62976;BME280;49071;0.000;0.000;2023-10-13T08:32:26;100610.97;;;20.94;
62976;BME280;49071;0.000;0.000;2023-10-13T08:35:28;100618.16;;;20.92;
62976;BME280;49071;0.000;0.000;2023-10-13T08:38:34;100610.53;;;20.89;
62976;BME280;49071;0.000;0.000;2023-10-13T08:41:50;100612.50;;;20.87;
62976;BME280;49071;0.000;0.000;2023-10-13T08:45:12;100613.16;;;20.89;
62976;BME280;49071;0.000;0.000;2023-10-13T08:48:27;100607.22;;;20.87;
62976;BME280;49071;0.000;0.000;2023-10-13T08:51:33;100610.69;;;20.87;
62976;BME280;49071;0.000;0.000;2023-10-13T08:54:43;100603.63;;;20.88;
62976;BME280;49071;0.000;0.000;2023-10-13T08:58:03;100602.09;;;20.85;
62976;BME280;49071;0.000;0.000;2023-10-13T09:01:13;100590.75;;;20.85;
62976;BME280;49071;0.000;0.000;2023-10-13T09:04:34;100586.59;;;20.82;
62976;BME280;49071;0.000;0.000;2023-10-13T09:07:43;100585.91;;;20.80;
62976;BME280;49071;0.000;0.000;2023-10-13T09:10:44;100579.13;;;20.78;
62976;BME280;49071;0.000;0.000;2023-10-13T09:14:12;100590.31;;;20.71;
62976;BME280;49071;0.000;0.000;2023-10-13T09:17:20;100596.28;;;20.73;
62976;BME280;49071;0.000;0.000;2023-10-13T09:20:30;100592.00;;;20.72;
62976;BME280;49071;0.000;0.000;2023-10-13T09:23:46;100597.38;;;20.70;
62976;BME280;49071;0.000;0.000;2023-10-13T09:26:48;100587.84;;;20.69;
62976;BME280;49071;0.000;0.000;2023-10-13T09:30:00;100583.69;;;20.67;
62976;BME280;49071;0.000;0.000;2023-10-13T09:33:09;100565.44;;;20.65;
62976;BME280;49071;0.000;0.000;2023-10-13T09:36:15;100573.44;;;20.64;
62976;BME280;49071;0.000;0.000;2023-10-13T09:39:17;100572.63;;;20.63;
62976;BME280;49071;0.000;0.000;2023-10-13T09:42:29;100572.63;;;20.63;
62976;BME280;49071;0.000;0.000;2023-10-13T09:45:31;100554.34;;;20.62;
62976;BME280;49071;0.000;0.000;2023-10-13T09:48:40;100552.69;;;20.61;
62976;BME280;49071;0.000;0.000;2023-10-13T09:51:46;100552.13;;;20.57;
62976;BME280;49071;0.000;0.000;2023-10-13T09:54:55;100547.84;;;20.56;
62976;BME280;49071;0.000;0.000;2023-10-13T09:58:02;100543.41;;;20.57;
62976;BME280;49071;0.000;0.000;2023-10-13T10:01:10;100549.66;;;20.56;
62976;BME280;49071;0.000;0.000;2023-10-13T10:04:11;100543.53;;;20.55;
62976;BME280;49071;0.000;0.000;2023-10-13T10:07:26;100547.16;;;20.54;
62976;BME280;49071;0.000;0.000;2023-10-13T10:10:50;100539.25;;;20.54;
62976;BME280;49071;0.000;0.000;2023-10-13T10:13:55;100527.50;;;20.58;
62976;BME280;49071;0.000;0.000;2023-10-13T10:20:01;100514.06;;;20.71;
62976;BME280;49071;0.000;0.000;2023-10-13T10:23:06;100502.47;;;20.73;
62976;BME280;49071;0.000;0.000;2023-10-13T10:26:21;100501.19;;;20.77;
62976;BME280;49071;0.000;0.000;2023-10-13T10:29:21;100497.19;;;20.73;
62976;BME280;49071;0.000;0.000;2023-10-13T10:32:31;100498.31;;;20.71;
62976;BME280;49071;0.000;0.000;2023-10-13T10:35:31;100486.28;;;20.68;
62976;BME280;49071;0.000;0.000;2023-10-13T10:38:32;100467.19;;;20.66;
62976;BME280;49071;0.000;0.000;2023-10-13T10:41:33;100462.91;;;20.65;
62976;BME280;49071;0.000;0.000;2023-10-13T10:44:44;100462.22;;;20.63;
62976;BME280;49071;0.000;0.000;2023-10-13T10:47:47;100454.31;;;20.63;
62976;BME280;49071;0.000;0.000;2023-10-13T10:50:51;100450.03;;;20.62;
62976;BME280;49071;0.000;0.000;2023-10-13T10:53:53;100446.72;;;20.60;
62976;BME280;49071;0.000;0.000;2023-10-13T10:56:55;100445.06;;;20.59;
62976;BME280;49071;0.000;0.000;2023-10-13T10:59:55;100444.38;;;20.57;
62976;BME280;49071;0.000;0.000;2023-10-13T11:03:11;100440.09;;;20.56;
62976;BME280;49071;0.000;0.000;2023-10-13T11:06:12;100431.50;;;20.54;
62976;BME280;49071;0.000;0.000;2023-10-13T11:09:15;100429.84;;;20.53;
62976;BME280;49071;0.000;0.000;2023-10-13T11:12:26;100424.69;;;20.52;
62976;BME280;49071;0.000;0.000;2023-10-13T11:15:26;100420.25;;;20.52;
62976;BME280;49071;0.000;0.000;2023-10-13T11:18:33;100438.66;;;20.52;
62976;BME280;49071;0.000;0.000;2023-10-13T11:21:38;100429.13;;;20.51;
62976;BME280;49071;0.000;0.000;2023-10-13T11:24:41;100431.75;;;20.51;
62976;BME280;49071;0.000;0.000;2023-10-13T11:27:42;100428.41;;;20.49;
62976;BME280;49071;0.000;0.000;2023-10-13T11:30:51;100409.34;;;20.48;
62976;BME280;49071;0.000;0.000;2023-10-13T11:33:51;100427.59;;;20.49;
62976;BME280;49071;0.000;0.000;2023-10-13T11:36:56;100426.94;;;20.47;
62976;BME280;49071;0.000;0.000;2023-10-13T11:39:58;100427.06;;;20.46;
62976;BME280;49071;0.000;0.000;2023-10-13T11:42:58;100431.31;;;20.47;
62976;BME280;49071;0.000;0.000;2023-10-13T11:45:58;100423.72;;;20.44;
62976;BME280;49071;0.000;0.000;2023-10-13T11:49:11;100411.56;;;20.43;
62976;BME280;49071;0.000;0.000;2023-10-13T11:52:32;100414.19;;;20.43;
62976;BME280;49071;0.000;0.000;2023-10-13T11:55:32;100416.00;;;20.42;
62976;BME280;49071;0.000;0.000;2023-10-13T11:58:32;100399.41;;;20.42;
62976;BME280;49071;0.000;0.000;2023-10-13T12:01:34;100391.66;;;20.40;
62976;BME280;49071;0.000;0.000;2023-10-13T12:04:53;100372.44;;;20.40;
62976;BME280;49071;0.000;0.000;2023-10-13T12:07:57;100377.69;;;20.40;
62976;BME280;49071;0.000;0.000;2023-10-13T12:11:03;100368.16;;;20.39;
62976;BME280;49071;0.000;0.000;2023-10-13T12:14:23;100370.78;;;20.39;
62976;BME280;49071;0.000;0.000;2023-10-13T12:17:36;100364.69;;;20.38;
62976;BME280;49071;0.000;0.000;2023-10-13T12:20:39;100356.00;;;20.38;
62976;BME280;49071;0.000;0.000;2023-10-13T12:23:45;100356.81;;;20.38;
62976;BME280;49071;0.000;0.000;2023-10-13T12:26:45;100345.47;;;20.38;
62976;BME280;49071;0.000;0.000;2023-10-13T12:29:46;100340.22;;;20.38;
62976;BME280;49071;0.000;0.000;2023-10-13T12:32:46;100344.63;;;20.37;
62976;BME280;49071;0.000;0.000;2023-10-13T12:35:58;100330.81;;;20.35;
62976;BME280;49071;0.000;0.000;2023-10-13T12:39:26;100326.41;;;20.36;
62976;BME280;49071;0.000;0.000;2023-10-13T12:42:45;100329.03;;;20.36;
62976;BME280;49071;0.000;0.000;2023-10-13T12:46:04;100319.50;;;20.35;
62976;BME280;49071;0.000;0.000;2023-10-13T12:49:23;100313.25;;;20.36;
62976;BME280;49071;0.000;0.000;2023-10-13T12:52:41;100319.50;;;20.35;
62976;BME280;49071;0.000;0.000;2023-10-13T12:55:45;100305.38;;;20.36;
62976;BME280;49071;0.000;0.000;2023-10-13T12:58:45;100308.13;;;20.34;
62976;BME280;49071;0.000;0.000;2023-10-13T13:01:52;100298.59;;;20.33;
62976;BME280;49071;0.000;0.000;2023-10-13T13:04:53;100302.06;;;20.34;
62976;BME280;49071;0.000;0.000;2023-10-13T13:08:06;100288.91;;;20.34;
62976;BME280;49071;0.000;0.000;2023-10-13T13:11:06;100292.53;;;20.33;
62976;BME280;49071;0.000;0.000;2023-10-13T13:14:06;100290.59;;;20.35;
62976;BME280;49071;0.000;0.000;2023-10-13T13:17:10;100273.28;;;20.42;
62976;BME280;49071;0.000;0.000;2023-10-13T13:20:10;100276.28;;;20.47;
62976;BME280;49071;0.000;0.000;2023-10-13T13:23:30;100272.00;;;20.55;
62976;BME280;49071;0.000;0.000;2023-10-13T13:26:31;100261.34;;;20.66;
62976;BME280;49071;0.000;0.000;2023-10-13T13:29:31;100257.09;;;20.82;
62976;BME280;49071;0.000;0.000;2023-10-13T13:32:31;100245.81;;;20.99;
62976;BME280;49071;0.000;0.000;2023-10-13T13:35:31;100241.38;;;21.16;
62976;BME280;49071;0.000;0.000;2023-10-13T13:38:34;100241.44;;;21.34;
62976;BME280;49071;0.000;0.000;2023-10-13T13:41:35;100232.41;;;21.53;
62976;BME280;49071;0.000;0.000;2023-10-13T13:44:35;100225.00;;;21.66;
62976;BME280;49071;0.000;0.000;2023-10-13T13:47:38;100223.75;;;21.78;
62976;BME280;49071;0.000;0.000;2023-10-13T13:50:38;100212.78;;;21.82;
62976;BME280;49071;0.000;0.000;2023-10-13T13:53:41;100203.88;;;21.83;
62976;BME280;49071;0.000;0.000;2023-10-13T13:56:50;100199.75;;;21.81;
62976;BME280;49071;0.000;0.000;2023-10-13T13:59:51;100200.06;;;21.78;
62976;BME280;49071;0.000;0.000;2023-10-13T14:02:51;100181.97;;;21.75;
62976;BME280;49071;0.000;0.000;2023-10-13T14:05:52;100175.31;;;21.71;
62976;BME280;49071;0.000;0.000;2023-10-13T14:08:52;100170.53;;;21.66;
62976;BME280;49071;0.000;0.000;2023-10-13T14:11:54;100178.72;;;21.64;
62976;BME280;49071;0.000;0.000;2023-10-13T14:15:15;100173.09;;;21.59;
62976;BME280;49071;0.000;0.000;2023-10-13T14:18:23;100170.75;;;21.56;
62976;BME280;49071;0.000;0.000;2023-10-13T14:21:30;100173.03;;;21.51;
62976;BME280;49071;0.000;0.000;2023-10-13T14:24:34;100163.78;;;21.47;
62976;BME280;49071;0.000;0.000;2023-10-13T14:27:35;100171.97;;;21.44;
62976;BME280;49071;0.000;0.000;2023-10-13T14:30:35;100172.28;;;21.41;
62976;BME280;49071;0.000;0.000;2023-10-13T14:33:36;100174.53;;;21.36;
62976;BME280;49071;0.000;0.000;2023-10-13T14:36:37;100169.59;;;21.33;
62976;BME280;49071;0.000;0.000;2023-10-13T14:39:37;100164.59;;;21.30;
62976;BME280;49071;0.000;0.000;2023-10-13T14:42:37;100170.16;;;21.27;
62976;BME280;49071;0.000;0.000;2023-10-13T14:45:40;100151.88;;;21.26;
62976;BME280;49071;0.000;0.000;2023-10-13T14:48:40;100149.53;;;21.23;
62976;BME280;49071;0.000;0.000;2023-10-13T14:51:40;100146.38;;;21.19;
62976;BME280;49071;0.000;0.000;2023-10-13T14:54:40;100162.34;;;21.18;
62976;BME280;49071;0.000;0.000;2023-10-13T14:57:41;100150.00;;;21.18;
62976;BME280;49071;0.000;0.000;2023-10-13T15:00:42;100145.03;;;21.15;
62976;BME280;49071;0.000;0.000;2023-10-13T15:03:48;100140.09;;;21.12;
62976;BME280;49071;0.000;0.000;2023-10-13T15:06:51;100138.56;;;21.10;
62976;BME280;49071;0.000;0.000;2023-10-13T15:09:51;100136.25;;;21.07;
62976;BME280;49071;0.000;0.000;2023-10-13T15:12:51;100125.88;;;21.06;
62976;BME280;49071;0.000;0.000;2023-10-13T15:15:52;100133.91;;;21.04;
62976;BME280;49071;0.000;0.000;2023-10-13T15:18:52;100140.00;;;21.05;
62976;BME280;49071;0.000;0.000;2023-10-13T15:21:52;100151.50;;;21.04;
62976;BME280;49071;0.000;0.000;2023-10-13T15:24:54;100126.31;;;21.01;
62976;BME280;49071;0.000;0.000;2023-10-13T15:28:10;100135.38;;;20.99;
62976;BME280;49071;0.000;0.000;2023-10-13T15:31:10;100137.13;;;20.98;
62976;BME280;49071;0.000;0.000;2023-10-13T15:34:22;100132.03;;;20.97;
62976;BME280;49071;0.000;0.000;2023-10-13T15:37:23;100129.72;;;20.94;
62976;BME280;49071;0.000;0.000;2023-10-13T15:40:25;100114.94;;;20.93;
62976;BME280;49071;0.000;0.000;2023-10-13T15:43:27;100105.53;;;20.90;
62976;BME280;49071;0.000;0.000;2023-10-13T15:46:28;100100.41;;;20.89;
62976;BME280;49071;0.000;0.000;2023-10-13T15:49:30;100098.75;;;20.88;
62976;BME280;49071;0.000;0.000;2023-10-13T15:52:32;100091.84;;;20.87;
62976;BME280;49071;0.000;0.000;2023-10-13T15:55:35;100094.63;;;20.85;
62976;BME280;49071;0.000;0.000;2023-10-13T15:58:40;100086.91;;;20.84;
62976;BME280;49071;0.000;0.000;2023-10-13T16:01:40;100089.66;;;20.82;
62976;BME280;49071;0.000;0.000;2023-10-13T16:04:41;100084.41;;;20.82;
62976;BME280;49071;0.000;0.000;2023-10-13T16:07:41;100082.75;;;20.81;
62976;BME280;49071;0.000;0.000;2023-10-13T16:10:41;100085.38;;;20.81;
62976;BME280;49071;0.000;0.000;2023-10-13T16:13:42;100092.44;;;20.81;
62976;BME280;49071;0.000;0.000;2023-10-13T16:16:45;100095.09;;;20.81;
62976;BME280;49071;0.000;0.000;2023-10-13T16:19:46;100083.88;;;20.79;
62976;BME280;49071;0.000;0.000;2023-10-13T16:22:47;100090.94;;;20.78;
62976;BME280;49071;0.000;0.000;2023-10-13T16:25:48;100088.44;;;20.77;
62976;BME280;49071;0.000;0.000;2023-10-13T16:28:49;100079.09;;;20.75;
62976;BME280;49071;0.000;0.000;2023-10-13T16:31:53;100070.34;;;20.74;
62976;BME280;49071;0.000;0.000;2023-10-13T16:34:54;100075.59;;;20.74;
62976;BME280;49071;0.000;0.000;2023-10-13T16:37:54;100071.31;;;20.73;
62976;BME280;49071;0.000;0.000;2023-10-13T16:40:54;100070.50;;;20.73;
62976;BME280;49071;0.000;0.000;2023-10-13T16:43:54;100069.00;;;20.70;
62976;BME280;49071;0.000;0.000;2023-10-13T16:46:54;100069.00;;;20.70;
62976;BME280;49071;0.000;0.000;2023-10-13T16:50:00;100072.59;;;20.69;
62976;BME280;49071;0.000;0.000;2023-10-13T16:53:02;100064.72;;;20.69;
62976;BME280;49071;0.000;0.000;2023-10-13T16:56:04;100063.75;;;20.70;
62976;BME280;49071;0.000;0.000;2023-10-13T16:59:05;100054.72;;;20.73;
62976;BME280;49071;0.000;0.000;2023-10-13T17:02:06;100063.44;;;20.73;
62976;BME280;49071;0.000;0.000;2023-10-13T17:05:08;100049.31;;;20.74;
62976;BME280;49071;0.000;0.000;2023-10-13T17:08:08;100042.28;;;20.75;
62976;BME280;49071;0.000;0.000;2023-10-13T17:14:12;100051.50;;;20.78;
62976;BME280;49071;0.000;0.000;2023-10-13T17:17:12;100038.19;;;20.80;
62976;BME280;49071;0.000;0.000;2023-10-13T17:20:12;100032.00;;;20.81;
62976;BME280;49071;0.000;0.000;2023-10-13T17:23:12;100030.31;;;20.80;
62976;BME280;49071;0.000;0.000;2023-10-13T17:26:12;100030.31;;;20.80;
62976;BME280;49071;0.000;0.000;2023-10-13T17:29:13;100028.53;;;20.80;
62976;BME280;49071;0.000;0.000;2023-10-13T17:32:13;100029.34;;;20.81;
62976;BME280;49071;0.000;0.000;2023-10-13T17:35:16;100032.81;;;20.81;
62976;BME280;49071;0.000;0.000;2023-10-13T17:38:17;100031.00;;;20.82;
62976;BME280;49071;0.000;0.000;2023-10-13T17:41:17;100019.66;;;20.81;